createdAt,value
2022-10-05T00:00:51.370Z,5.43
2022-10-05T00:03:18.362Z,5.55
2022-10-05T00:05:46.330Z,5.30
2022-10-05T00:08:18.962Z,5.57
2022-10-05T00:10:46.776Z,6.07
2022-10-05T00:13:25.285Z,6.05
2022-10-05T00:16:16.343Z,5.90
2022-10-05T00:18:50.178Z,5.90
2022-10-05T00:21:23.405Z,6.25
2022-10-05T00:23:51.275Z,5.93
2022-10-05T00:26:24.821Z,5.93
2022-10-05T00:28:53.632Z,6.22
2022-10-05T00:31:26.678Z,6.70
2022-10-05T00:33:55.206Z,5.97
2022-10-05T00:36:22.207Z,6.63
2022-10-05T00:38:49.682Z,9.13
2022-10-05T00:41:45.695Z,6.95
2022-10-05T00:44:35.922Z,7.10
2022-10-05T00:47:18.578Z,7.03
2022-10-05T00:49:51.334Z,7.30
2022-10-05T00:52:33.445Z,7.72
2022-10-05T00:55:05.680Z,8.32
2022-10-05T00:57:50.978Z,9.52
2022-10-05T01:00:26.163Z,9.20
2022-10-05T01:03:28.829Z,8.90
2022-10-05T01:06:32.748Z,9.55
2022-10-05T01:09:11.267Z,10.73
2022-10-05T01:11:40.850Z,10.60
2022-10-05T01:14:07.711Z,12.25
2022-10-05T01:16:51.084Z,14.18
2022-10-05T01:19:21.091Z,14.93
2022-10-05T01:21:55.903Z,14.77
2022-10-05T01:24:41.164Z,15.40
2022-10-05T01:27:18.536Z,15.00
2022-10-05T01:30:02.505Z,14.70
2022-10-05T01:32:39.584Z,15.02
2022-10-05T01:35:22.122Z,15.93
2022-10-05T01:38:01.505Z,16.25
2022-10-05T01:40:44.745Z,15.98
2022-10-05T01:43:34.426Z,17.02
2022-10-05T01:46:07.562Z,18.33
2022-10-05T01:48:53.276Z,16.05
2022-10-05T01:51:37.552Z,17.73
2022-10-05T01:54:21.158Z,15.98
2022-10-05T01:57:13.063Z,19.35
2022-10-05T02:00:01.546Z,16.35
2022-10-05T02:02:31.846Z,16.67
2022-10-05T02:05:14.145Z,17.48
2022-10-05T02:07:54.861Z,17.83
2022-10-05T02:10:33.059Z,17.25
2022-10-05T02:13:35.395Z,17.48
2022-10-05T02:16:18.051Z,17.30
2022-10-05T02:18:56.939Z,17.00
2022-10-05T02:21:25.665Z,15.85
2022-10-05T02:23:57.745Z,16.33
2022-10-05T02:26:26.665Z,16.23
2022-10-05T02:29:04.339Z,16.48
2022-10-05T02:31:40.635Z,15.93
2022-10-05T02:34:23.760Z,16.38
2022-10-05T02:36:59.030Z,15.85
2022-10-05T02:39:35.867Z,18.65
2022-10-05T02:42:30.395Z,16.15
2022-10-05T02:45:03.704Z,16.35
2022-10-05T02:47:55.474Z,17.95
2022-10-05T02:50:45.457Z,17.05
2022-10-05T02:53:25.596Z,15.68
2022-10-05T02:56:09.261Z,16.73
2022-10-05T02:58:46.430Z,16.17
2022-10-05T03:01:35.952Z,16.30
2022-10-05T03:04:36.909Z,15.90
2022-10-05T03:07:16.424Z,16.63
2022-10-05T03:12:37.753Z,16.90
2022-10-05T03:16:00.018Z,17.80
2022-10-05T03:18:39.353Z,16.75
2022-10-05T03:21:45.838Z,16.80
2022-10-05T03:24:15.991Z,16.58
2022-10-05T03:27:08.935Z,17.27
2022-10-05T03:29:57.717Z,17.27
2022-10-05T03:35:23.269Z,16.25
2022-10-05T03:37:56.239Z,16.85
2022-10-05T03:40:48.988Z,17.33
2022-10-05T03:43:52.610Z,16.45
2022-10-05T03:46:53.165Z,16.38
2022-10-05T03:49:44.749Z,15.02
2022-10-05T03:52:38.760Z,16.00
2022-10-05T03:55:26.473Z,17.75
2022-10-05T03:57:58.746Z,15.75
2022-10-05T04:00:30.843Z,17.52
2022-10-05T04:03:10.296Z,17.63
2022-10-05T04:05:50.644Z,17.80
2022-10-05T04:08:36.458Z,17.45
2022-10-05T04:11:13.765Z,17.73
2022-10-05T04:13:54.470Z,18.20
2022-10-05T04:16:55.895Z,18.00
2022-10-05T04:19:52.127Z,17.65
2022-10-05T04:22:30.213Z,16.33
2022-10-05T04:25:23.959Z,15.80
2022-10-05T04:28:01.433Z,17.13
2022-10-05T04:30:30.942Z,16.15
2022-10-05T04:32:59.660Z,16.55
2022-10-05T04:35:50.457Z,15.20
2022-10-05T04:38:28.155Z,15.80
2022-10-05T04:41:14.260Z,16.05
2022-10-05T04:44:13.502Z,15.23
2022-10-05T04:47:05.388Z,14.52
2022-10-05T04:49:58.340Z,14.63
2022-10-05T04:52:40.238Z,15.48
2022-10-05T04:55:31.033Z,16.38
2022-10-05T04:58:15.026Z,16.13
2022-10-05T05:01:08.356Z,15.95
2022-10-05T05:03:57.573Z,17.40
2022-10-05T05:07:33.827Z,14.63
2022-10-05T05:10:18.017Z,14.15
2022-10-05T05:13:03.657Z,15.63
2022-10-05T05:16:05.647Z,15.90
2022-10-05T05:18:45.232Z,15.18
2022-10-05T05:21:33.309Z,14.80
2022-10-05T05:24:27.824Z,13.73
2022-10-05T05:27:01.249Z,14.48
2022-10-05T05:30:05.718Z,15.98
2022-10-05T05:32:59.461Z,14.98
2022-10-05T05:35:46.124Z,13.98
2022-10-05T05:38:21.637Z,16.73
2022-10-05T05:41:25.103Z,14.85
2022-10-05T05:44:08.610Z,15.20
2022-10-05T05:47:03.042Z,16.05
2022-10-05T05:49:48.513Z,15.18
2022-10-05T05:52:26.194Z,14.43
2022-10-05T05:55:00.153Z,15.38
2022-10-05T05:57:33.734Z,15.15
2022-10-05T06:00:16.587Z,14.77
2022-10-05T06:02:55.735Z,13.77
2022-10-05T06:05:34.503Z,13.90
2022-10-05T06:08:16.065Z,14.13
2022-10-05T06:10:57.700Z,13.60
2022-10-05T06:13:33.099Z,13.50
2022-10-05T06:16:20.002Z,13.88
2022-10-05T06:19:04.087Z,14.60
2022-10-05T06:22:22.674Z,14.25
2022-10-05T06:25:11.985Z,15.50
2022-10-05T06:28:11.945Z,15.82
2022-10-05T06:31:20.373Z,14.88
2022-10-05T06:33:54.859Z,15.52
2022-10-05T06:36:40.915Z,16.45
2022-10-05T06:39:17.427Z,15.15
2022-10-05T06:41:47.713Z,17.65
2022-10-05T06:44:22.274Z,17.13
2022-10-05T06:47:34.810Z,15.00
2022-10-05T06:50:29.588Z,15.88
2022-10-05T06:53:40.963Z,15.98
2022-10-05T06:56:16.561Z,15.77
2022-10-05T06:59:04.931Z,15.43
2022-10-05T07:01:37.914Z,15.98
2022-10-05T07:04:24.372Z,15.13
2022-10-05T07:07:10.255Z,15.32
2022-10-05T07:10:02.225Z,13.65
2022-10-05T07:12:54.433Z,15.10
2022-10-05T07:15:43.863Z,15.10
2022-10-05T07:18:12.783Z,13.90
2022-10-05T07:21:02.801Z,13.40
2022-10-05T07:23:36.059Z,14.85
2022-10-05T07:26:06.272Z,13.77
2022-10-05T07:28:49.308Z,13.90
2022-10-05T07:31:48.809Z,13.43
2022-10-05T07:37:27.144Z,13.57
2022-10-05T07:40:00.660Z,13.80
2022-10-05T07:42:52.091Z,14.52
2022-10-05T07:45:43.754Z,13.80
2022-10-05T07:48:21.651Z,14.07
2022-10-05T07:51:06.727Z,14.40
2022-10-05T07:53:41.236Z,14.18
2022-10-05T07:56:22.418Z,13.05
2022-10-05T07:59:03.123Z,13.20
2022-10-05T08:01:35.131Z,13.43
2022-10-05T08:04:11.441Z,13.35
2022-10-05T08:06:50.268Z,12.75
2022-10-05T08:09:53.783Z,13.32
2022-10-05T08:12:53.742Z,12.18
2022-10-05T08:18:00.646Z,12.73
2022-10-05T08:20:42.943Z,12.30
2022-10-05T08:23:09.931Z,12.80
2022-10-05T08:26:09.460Z,11.65
2022-10-05T08:28:54.336Z,11.05
2022-10-05T08:31:30.090Z,10.65
2022-10-05T08:34:01.222Z,10.77
2022-10-05T08:37:00.655Z,11.00
2022-10-05T08:39:34.766Z,11.07
2022-10-05T08:42:16.882Z,9.90
2022-10-05T08:45:06.082Z,10.05
2022-10-05T08:47:57.649Z,9.70
2022-10-05T08:50:33.785Z,8.68
2022-10-05T08:53:03.387Z,12.68
2022-10-05T08:55:47.374Z,10.93
2022-10-05T08:58:54.300Z,9.93
2022-10-05T09:01:35.871Z,9.50
2022-10-05T09:04:21.276Z,9.02
2022-10-05T09:07:23.640Z,9.60
2022-10-05T09:10:30.040Z,10.52
2022-10-05T09:13:09.457Z,9.73
2022-10-05T09:15:58.393Z,10.02
2022-10-05T09:19:01.176Z,9.27
2022-10-05T09:21:52.666Z,9.30
2022-10-05T09:24:28.154Z,8.98
2022-10-05T09:27:17.607Z,9.32
2022-10-05T09:30:19.642Z,9.45
2022-10-05T09:32:57.994Z,8.57
2022-10-05T09:35:49.625Z,8.23
2022-10-05T09:38:31.790Z,7.78
2022-10-05T09:41:24.937Z,7.53
2022-10-05T09:44:03.855Z,7.95
2022-10-05T09:46:37.030Z,7.73
2022-10-05T09:49:19.285Z,6.60
2022-10-05T09:52:07.764Z,6.25
2022-10-05T09:54:47.262Z,5.97
2022-10-05T09:57:33.618Z,6.30
2022-10-05T10:00:24.377Z,6.72
2022-10-05T10:03:05.948Z,6.70
2022-10-05T10:05:47.608Z,7.25
2022-10-05T10:08:27.707Z,6.45
2022-10-05T10:11:25.378Z,6.95
2022-10-05T10:14:11.648Z,6.10
2022-10-05T10:16:56.835Z,6.93
2022-10-05T10:19:48.726Z,7.05
2022-10-05T10:22:18.902Z,6.55
2022-10-05T10:25:03.133Z,6.07
2022-10-05T10:27:42.153Z,7.15
2022-10-05T10:30:39.929Z,5.55
2022-10-05T10:33:25.732Z,5.63
2022-10-05T10:36:07.007Z,5.93
2022-10-05T10:39:20.827Z,5.97
2022-10-05T10:42:12.270Z,5.47
2022-10-05T10:44:54.971Z,6.38
2022-10-05T10:47:41.179Z,5.35
2022-10-05T10:50:08.383Z,5.60
2022-10-05T10:53:12.618Z,4.82
2022-10-05T10:56:16.762Z,5.40
2022-10-05T10:59:13.082Z,7.15
2022-10-05T11:02:04.632Z,5.82
2022-10-05T11:04:58.218Z,5.90
2022-10-05T11:08:03.351Z,5.45
2022-10-05T11:10:51.583Z,5.97
2022-10-05T11:13:25.003Z,6.03
2022-10-05T11:16:19.450Z,5.40
2022-10-05T11:19:21.690Z,5.53
2022-10-05T11:21:59.190Z,4.85
2022-10-05T11:24:54.830Z,4.55
2022-10-05T11:27:50.185Z,6.03
2022-10-05T11:30:51.318Z,4.75
2022-10-05T11:33:43.422Z,4.97
2022-10-05T11:36:22.876Z,5.05
2022-10-05T11:39:26.947Z,4.90
2022-10-05T11:42:23.535Z,5.15
2022-10-05T11:45:24.421Z,4.88
2022-10-05T11:48:33.740Z,4.43
2022-10-05T11:51:35.172Z,5.07
2022-10-05T11:54:08.148Z,4.95
2022-10-05T11:56:44.797Z,4.30
2022-10-05T11:59:30.736Z,4.30
2022-10-05T12:02:25.731Z,4.13
2022-10-05T12:05:46.923Z,4.57
2022-10-05T12:08:55.911Z,5.10
2022-10-05T12:11:22.829Z,4.30
2022-10-05T12:14:04.672Z,4.55
2022-10-05T12:16:53.788Z,4.60
2022-10-05T12:19:30.047Z,4.03
2022-10-05T12:22:04.666Z,5.35
2022-10-05T12:24:37.650Z,4.57
2022-10-05T12:27:27.719Z,4.65
2022-10-05T12:30:25.245Z,5.22
2022-10-05T12:33:02.233Z,6.72
2022-10-05T12:35:49.314Z,4.65
2022-10-05T12:38:41.772Z,4.50
2022-10-05T12:41:19.705Z,4.97
2022-10-05T12:44:37.822Z,5.22
2022-10-05T12:47:24.726Z,4.22
2022-10-05T12:50:03.565Z,4.75
2022-10-05T12:52:48.600Z,4.68
2022-10-05T12:55:28.471Z,4.22
2022-10-05T12:58:16.473Z,6.60
2022-10-05T13:01:21.740Z,4.78
2022-10-05T13:04:19.495Z,4.20
2022-10-05T13:06:52.599Z,4.00
2022-10-05T13:09:48.936Z,4.57
2022-10-05T13:12:48.098Z,3.97
2022-10-05T13:15:19.661Z,4.45
2022-10-05T13:18:00.222Z,4.03
2022-10-05T13:20:38.017Z,3.90
2022-10-05T13:23:14.064Z,4.63
2022-10-05T13:25:51.909Z,4.47
2022-10-05T13:28:30.774Z,10.73
2022-10-05T13:31:18.743Z,4.10
2022-10-05T13:33:59.905Z,5.20
2022-10-05T13:36:48.001Z,4.88
2022-10-05T13:39:14.999Z,5.15
2022-10-05T13:41:52.014Z,4.00
2022-10-05T13:44:35.379Z,4.65
2022-10-05T13:47:13.588Z,4.32
2022-10-05T13:50:19.311Z,3.97
2022-10-05T13:53:14.057Z,4.32
2022-10-05T13:55:54.601Z,4.38
2022-10-05T13:58:37.027Z,4.95
2022-10-05T14:01:14.783Z,3.70
2022-10-05T14:04:24.803Z,5.38
2022-10-05T14:06:54.822Z,5.25
2022-10-05T14:09:35.101Z,4.65
2022-10-05T14:12:04.778Z,4.70
2022-10-05T14:14:34.071Z,5.20
2022-10-05T14:17:05.890Z,4.90
2022-10-05T14:19:42.208Z,4.45
2022-10-05T14:22:24.390Z,5.00
2022-10-05T14:24:56.122Z,4.30
2022-10-05T14:27:28.889Z,4.90
2022-10-05T14:29:58.126Z,5.05
2022-10-05T14:32:27.732Z,4.13
2022-10-05T14:37:56.279Z,5.90
2022-10-05T14:40:36.475Z,4.90
2022-10-05T14:43:15.513Z,4.93
2022-10-05T14:46:05.591Z,4.40
2022-10-05T14:48:42.984Z,5.10
2022-10-05T14:51:13.069Z,4.72
2022-10-05T14:53:43.685Z,4.60
2022-10-05T14:56:23.283Z,4.35
2022-10-05T15:01:36.023Z,4.43
2022-10-05T15:04:26.927Z,5.70
2022-10-05T15:07:18.619Z,5.68
2022-10-05T15:09:54.390Z,5.20
2022-10-05T15:12:49.395Z,4.88
2022-10-05T15:15:34.040Z,7.22
2022-10-05T15:18:05.986Z,7.43
2022-10-05T15:20:57.559Z,7.07
2022-10-05T15:23:38.469Z,5.18
2022-10-05T15:26:30.243Z,14.88
2022-10-05T15:29:07.176Z,6.35
2022-10-05T15:31:46.779Z,5.78
2022-10-05T15:36:54.613Z,4.22
2022-10-05T15:39:43.574Z,4.93
2022-10-05T15:42:14.763Z,4.35
2022-10-05T15:45:11.049Z,5.05
2022-10-05T15:48:18.046Z,6.18
2022-10-05T15:50:57.097Z,4.60
2022-10-05T15:53:52.619Z,5.07
2022-10-05T15:56:38.738Z,5.10
2022-10-05T15:59:20.047Z,4.82
2022-10-05T16:01:57.441Z,4.82
2022-10-05T16:04:39.869Z,5.63
2022-10-05T16:07:36.251Z,6.75
2022-10-05T16:10:21.594Z,7.00
2022-10-05T16:13:09.742Z,6.13
2022-10-05T16:15:42.937Z,5.57
2022-10-05T16:18:32.432Z,6.32
2022-10-05T16:21:05.364Z,5.63
2022-10-05T16:23:47.733Z,5.30
2022-10-05T16:26:48.972Z,5.38
2022-10-05T16:29:37.227Z,5.22
2022-10-05T16:32:16.112Z,5.10
2022-10-05T16:34:50.716Z,5.20
2022-10-05T16:37:59.673Z,5.85
2022-10-05T16:40:51.875Z,6.03
2022-10-05T16:43:21.836Z,6.25
2022-10-05T16:46:16.057Z,7.30
2022-10-05T16:48:57.546Z,5.28
2022-10-05T16:51:40.052Z,5.75
2022-10-05T16:54:25.320Z,5.65
2022-10-05T16:56:59.588Z,5.85
2022-10-05T16:59:32.506Z,5.97
2022-10-05T17:02:15.970Z,6.22
2022-10-05T17:05:10.309Z,8.23
2022-10-05T17:07:41.152Z,7.57
2022-10-05T17:10:38.734Z,9.63
2022-10-05T17:13:36.475Z,9.40
2022-10-05T17:16:25.346Z,9.45
2022-10-05T17:19:08.743Z,8.23
2022-10-05T17:21:46.216Z,8.48
2022-10-05T17:24:32.910Z,9.02
2022-10-05T17:27:23.169Z,8.98
2022-10-05T17:29:55.651Z,9.13
2022-10-05T17:32:22.592Z,9.95
2022-10-05T17:35:01.714Z,9.60
2022-10-05T17:37:35.621Z,10.85
2022-10-05T17:40:38.394Z,11.07
2022-10-05T17:43:17.301Z,11.02
2022-10-05T17:45:44.309Z,10.70
2022-10-05T17:48:12.982Z,10.32
2022-10-05T17:51:00.688Z,9.93
2022-10-05T17:54:06.878Z,9.65
2022-10-05T17:56:57.200Z,9.32
2022-10-05T17:59:46.480Z,9.45
2022-10-05T18:02:19.714Z,10.10
2022-10-05T18:05:12.857Z,9.82
2022-10-05T18:07:41.078Z,10.43
2022-10-05T18:10:13.443Z,10.82
2022-10-05T18:12:42.058Z,10.07
2022-10-05T18:15:08.951Z,10.00
2022-10-05T18:17:58.473Z,10.10
2022-10-05T18:20:28.820Z,10.75
2022-10-05T18:23:09.544Z,11.55
2022-10-05T18:26:18.137Z,10.05
2022-10-05T18:28:53.965Z,10.00
2022-10-05T18:31:39.013Z,10.13
2022-10-05T18:34:34.507Z,9.88
2022-10-05T18:37:04.074Z,9.43
2022-10-05T18:39:52.320Z,9.32
2022-10-05T18:42:38.136Z,10.10
2022-10-05T18:45:21.578Z,9.52
2022-10-05T18:48:04.113Z,9.38
2022-10-05T18:50:38.549Z,8.93
2022-10-05T18:53:11.670Z,9.70
2022-10-05T18:55:45.614Z,9.95
2022-10-05T18:58:26.133Z,9.48
2022-10-05T19:01:28.614Z,8.60
2022-10-05T19:04:09.906Z,10.07
2022-10-05T19:06:45.795Z,9.45
2022-10-05T19:09:24.181Z,9.80
2022-10-05T19:12:29.676Z,9.57
2022-10-05T19:15:22.591Z,9.43
2022-10-05T19:18:14.022Z,8.57
2022-10-05T19:20:47.702Z,8.95
2022-10-05T19:23:28.641Z,9.13
2022-10-05T19:26:07.627Z,8.02
2022-10-05T19:28:39.488Z,7.93
2022-10-05T19:31:12.234Z,8.00
2022-10-05T19:34:16.734Z,8.30
2022-10-05T19:37:08.696Z,8.15
2022-10-05T19:39:44.285Z,9.82
2022-10-05T19:42:44.735Z,10.07
2022-10-05T19:45:23.554Z,9.02
2022-10-05T19:48:05.583Z,8.25
2022-10-05T19:50:34.645Z,7.60
2022-10-05T19:53:08.325Z,7.45
2022-10-05T19:55:39.824Z,7.70
2022-10-05T19:58:23.453Z,7.68
2022-10-05T20:00:57.858Z,8.18
2022-10-05T20:03:32.921Z,7.75
2022-10-05T20:06:07.275Z,7.25
2022-10-05T20:08:48.534Z,7.63
2022-10-05T20:11:16.973Z,17.70
2022-10-05T20:13:45.488Z,12.05
2022-10-05T20:16:34.216Z,8.00
2022-10-05T20:19:23.764Z,8.15
2022-10-05T20:21:58.942Z,7.57
2022-10-05T20:24:29.926Z,7.85
2022-10-05T20:27:08.699Z,7.78
2022-10-05T20:29:43.495Z,8.18
2022-10-05T20:32:13.570Z,9.10
2022-10-05T20:34:42.429Z,7.60
2022-10-05T20:37:11.623Z,7.47
2022-10-05T20:39:40.094Z,8.15
2022-10-05T20:42:10.318Z,7.88
2022-10-05T20:44:38.181Z,7.97
2022-10-05T20:47:09.690Z,8.55
2022-10-05T20:49:38.670Z,8.50
2022-10-05T20:52:10.094Z,7.63
2022-10-05T20:54:38.924Z,9.05
2022-10-05T20:57:06.668Z,7.65
2022-10-05T20:59:35.228Z,7.60
2022-10-05T21:02:03.950Z,8.13
2022-10-05T21:04:42.874Z,7.90
2022-10-05T21:07:10.274Z,8.00
2022-10-05T21:09:38.622Z,8.32
2022-10-05T21:12:05.739Z,7.38
2022-10-05T21:14:34.569Z,8.38
2022-10-05T21:17:02.493Z,8.63
2022-10-05T21:19:30.099Z,8.52
2022-10-05T21:22:02.657Z,7.63
2022-10-05T21:24:29.712Z,7.57
2022-10-05T21:26:57.694Z,8.25
2022-10-05T21:29:24.820Z,7.55
2022-10-05T21:31:52.204Z,7.63
2022-10-05T21:34:19.315Z,7.63
2022-10-05T21:36:46.415Z,7.45
2022-10-05T21:41:49.502Z,7.93
2022-10-05T21:44:17.001Z,9.13
2022-10-05T21:46:44.116Z,8.10
2022-10-05T21:49:15.042Z,7.55
2022-10-05T21:51:45.023Z,7.28
2022-10-05T21:54:15.570Z,7.07
2022-10-05T21:56:46.031Z,7.88
2022-10-05T21:59:16.889Z,7.68
2022-10-05T22:01:43.899Z,7.13
2022-10-05T22:04:10.863Z,7.07
2022-10-05T22:06:38.047Z,8.82
2022-10-05T22:09:06.192Z,7.38
2022-10-05T22:11:33.676Z,7.28
2022-10-05T22:14:03.690Z,7.05
2022-10-05T22:16:34.905Z,7.25
2022-10-05T22:19:05.269Z,7.22
2022-10-05T22:21:34.334Z,6.85
2022-10-05T22:24:02.890Z,7.03
2022-10-05T22:26:30.317Z,6.50
2022-10-05T22:28:57.435Z,8.75
2022-10-05T22:31:24.521Z,7.07
2022-10-05T22:33:51.688Z,7.03
2022-10-05T22:36:19.177Z,6.63
2022-10-05T22:38:47.723Z,6.45
2022-10-05T22:41:16.598Z,6.63
2022-10-05T22:43:43.828Z,6.60
2022-10-05T22:46:12.572Z,6.68
2022-10-05T22:48:40.455Z,6.65
2022-10-05T22:51:07.927Z,6.63
2022-10-05T22:53:35.528Z,6.32
2022-10-05T22:56:10.770Z,6.38
2022-10-05T22:58:38.465Z,6.82
2022-10-05T23:01:08.030Z,6.88
2022-10-05T23:03:35.560Z,7.15
2022-10-05T23:06:11.222Z,6.55
2022-10-05T23:08:39.717Z,6.10
2022-10-05T23:11:09.123Z,6.90
2022-10-05T23:13:36.489Z,7.05
2022-10-05T23:16:12.582Z,6.32
2022-10-05T23:18:40.393Z,6.50
2022-10-05T23:21:08.698Z,6.80
2022-10-05T23:23:37.593Z,6.15
2022-10-05T23:26:05.758Z,6.57
2022-10-05T23:28:34.441Z,6.68
2022-10-05T23:31:03.927Z,6.72
2022-10-05T23:33:31.310Z,6.97
2022-10-05T23:36:07.190Z,7.30
2022-10-05T23:38:35.261Z,6.85
2022-10-05T23:41:09.122Z,7.00
2022-10-05T23:43:36.963Z,6.78
2022-10-05T23:46:05.382Z,6.32
2022-10-05T23:48:33.265Z,6.85
2022-10-05T23:51:00.739Z,7.57
2022-10-05T23:53:27.765Z,7.18
2022-10-05T23:55:55.651Z,6.78
2022-10-05T23:58:23.357Z,6.75
